Bookmark and Share
Track history (hours):
 

Sir Albert

Last reported at 2014-Apr-18 23:06 UTC. Time now 2014-Apr-19 07:07 UTC.
Position N 36°31' W 001°28'.

Length 135 m; draft 5.3 m.

Type: Cargo ship. MMSI: 248832000.

NotesDate/timePositionNaut miles runAvg speedWind from/ knotsBaromVisibWave heightAir tempDewpointWater temp
2014-Apr-18 23:06N 36°31' W 001°28'35 9.4
2014-Apr-18 19:19N 36°35' W 000°44'3611.0
2014-Apr-18 16:04N 36°39' W 000°00'3111.3
2014-Apr-18 13:21N 36°43' E 000°38'2211.3
2014-Apr-18 11:22N 36°45' E 001°06'911.3
2014-Apr-18 10:33N 36°47' E 001°17'1110.9
2014-Apr-18 09:33N 36°48' E 001°31'1110.7
2014-Apr-18 08:33N 36°49' E 001°44'1010.3
2014-Apr-18 07:33N 36°50' E 001°57'2310.8
2014-Apr-18 05:24N 36°53' E 002°25'910.5
2014-Apr-18 04:33N 36°54' E 002°36'1010.4
2014-Apr-18 03:33N 36°56' E 002°49'1110.7
2014-Apr-18 02:33N 36°57' E 003°03'1111.1
2014-Apr-18 01:32N 36°58' E 003°17'1111.1
2014-Apr-18 00:33N 36°59' E 003°30'1110.9
2014-Apr-17 23:33N 37°01' E 003°44'1111.1
2014-Apr-17 22:33N 37°02' E 003°57'1211.8
2014-Apr-17 21:33N 37°03' E 004°12'  
2014-Apr-11 01:22N 36°43' E 005°12'  

Dump ship's entire track history

sailing weather and tide predictions

Sir Albert — 9HA2536 — position and weather